sensor_id;sensor_type;location;lat;lon;timestamp;pressure;altitude;pressure_sealevel;temperature;humidity
78625;BME280;67944;0.000;0.000;2023-05-07T00:01:48;100611.31;;;24.38;36.66
78625;BME280;67944;0.000;0.000;2023-05-07T00:04:13;100610.50;;;24.38;37.18
78625;BME280;67944;0.000;0.000;2023-05-07T00:06:39;100604.34;;;24.37;37.09
78625;BME280;67944;0.000;0.000;2023-05-07T00:09:05;100610.69;;;24.36;36.80
78625;BME280;67944;0.000;0.000;2023-05-07T00:11:31;100607.22;;;24.36;36.63
78625;BME280;67944;0.000;0.000;2023-05-07T00:13:56;100608.22;;;24.35;36.79
78625;BME280;67944;0.000;0.000;2023-05-07T00:16:22;100605.75;;;24.33;36.87
78625;BME280;67944;0.000;0.000;2023-05-07T00:18:47;100599.63;;;24.33;36.53
78625;BME280;67944;0.000;0.000;2023-05-07T00:21:13;100596.34;;;24.31;36.71
78625;BME280;67944;0.000;0.000;2023-05-07T00:23:38;100595.53;;;24.30;37.09
78625;BME280;67944;0.000;0.000;2023-05-07T00:26:04;100594.69;;;24.30;37.18
78625;BME280;67944;0.000;0.000;2023-05-07T00:28:30;100594.69;;;24.30;37.02
78625;BME280;67944;0.000;0.000;2023-05-07T00:30:55;100591.41;;;24.27;37.00
78625;BME280;67944;0.000;0.000;2023-05-07T00:33:21;100587.09;;;24.26;37.03
78625;BME280;67944;0.000;0.000;2023-05-07T00:35:47;100595.09;;;24.26;37.21
78625;BME280;67944;0.000;0.000;2023-05-07T00:38:13;100590.78;;;24.25;37.00
78625;BME280;67944;0.000;0.000;2023-05-07T00:40:38;100584.03;;;24.23;37.03
78625;BME280;67944;0.000;0.000;2023-05-07T00:43:04;100580.38;;;24.24;37.16
78625;BME280;67944;0.000;0.000;2023-05-07T00:45:29;100579.53;;;24.23;37.25
78625;BME280;67944;0.000;0.000;2023-05-07T00:48:00;100581.56;;;24.21;37.09
78625;BME280;67944;0.000;0.000;2023-05-07T00:50:26;100596.72;;;24.21;36.94
78625;BME280;67944;0.000;0.000;2023-05-07T00:52:52;100590.56;;;24.20;37.24
78625;BME280;67944;0.000;0.000;2023-05-07T00:55:18;100580.13;;;24.19;37.22
78625;BME280;67944;0.000;0.000;2023-05-07T00:57:45;100575.00;;;24.17;37.54
78625;BME280;67944;0.000;0.000;2023-05-07T01:00:10;100574.19;;;24.17;37.51
78625;BME280;67944;0.000;0.000;2023-05-07T01:02:41;100575.19;;;24.16;37.08
78625;BME280;67944;0.000;0.000;2023-05-07T01:05:12;100582.34;;;24.15;37.25
78625;BME280;67944;0.000;0.000;2023-05-07T01:07:40;100577.22;;;24.14;37.46
78625;BME280;67944;0.000;0.000;2023-05-07T01:10:08;100574.56;;;24.14;37.36
78625;BME280;67944;0.000;0.000;2023-05-07T01:12:37;100575.78;;;24.11;37.14
78625;BME280;67944;0.000;0.000;2023-05-07T01:15:05;100581.13;;;24.11;37.02
78625;BME280;67944;0.000;0.000;2023-05-07T01:17:38;100569.66;;;24.11;37.65
78625;BME280;67944;0.000;0.000;2023-05-07T01:20:06;100561.88;;;24.09;37.11
78625;BME280;67944;0.000;0.000;2023-05-07T01:22:37;100567.19;;;24.09;37.06
78625;BME280;67944;0.000;0.000;2023-05-07T01:25:04;100562.06;;;24.08;37.62
78625;BME280;67944;0.000;0.000;2023-05-07T01:27:30;100568.41;;;24.07;36.99
78625;BME280;67944;0.000;0.000;2023-05-07T01:29:55;100557.75;;;24.07;37.22
78625;BME280;67944;0.000;0.000;2023-05-07T01:32:45;100555.31;;;24.05;37.55
78625;BME280;67944;0.000;0.000;2023-05-07T01:35:22;100558.16;;;24.04;37.65
78625;BME280;67944;0.000;0.000;2023-05-07T01:37:50;100556.31;;;24.04;37.67
78625;BME280;67944;0.000;0.000;2023-05-07T01:40:16;100561.06;;;24.02;37.81
78625;BME280;67944;0.000;0.000;2023-05-07T01:42:43;100554.91;;;24.02;37.69
78625;BME280;67944;0.000;0.000;2023-05-07T01:45:09;100555.94;;;24.01;37.43
78625;BME280;67944;0.000;0.000;2023-05-07T01:47:36;100547.13;;;24.00;37.33
78625;BME280;67944;0.000;0.000;2023-05-07T01:50:03;100551.63;;;24.00;37.44
78625;BME280;67944;0.000;0.000;2023-05-07T01:52:30;100556.13;;;23.99;37.07
78625;BME280;67944;0.000;0.000;2023-05-07T01:54:56;100551.81;;;23.98;37.58
78625;BME280;67944;0.000;0.000;2023-05-07T01:57:21;100552.84;;;23.97;37.47
78625;BME280;67944;0.000;0.000;2023-05-07T01:59:47;100553.03;;;23.96;37.17
78625;BME280;67944;0.000;0.000;2023-05-07T02:02:12;100556.53;;;23.96;37.75
78625;BME280;67944;0.000;0.000;2023-05-07T02:04:38;100553.22;;;23.94;37.32
78625;BME280;67944;0.000;0.000;2023-05-07T02:07:03;100548.94;;;23.93;37.90
78625;BME280;67944;0.000;0.000;2023-05-07T02:09:29;100544.63;;;23.92;37.75
78625;BME280;67944;0.000;0.000;2023-05-07T02:11:55;100557.94;;;23.92;37.27
78625;BME280;67944;0.000;0.000;2023-05-07T02:14:20;100550.16;;;23.90;37.62
78625;BME280;67944;0.000;0.000;2023-05-07T02:16:46;100556.28;;;23.91;37.27
78625;BME280;67944;0.000;0.000;2023-05-07T02:19:11;100557.31;;;23.90;37.53
78625;BME280;67944;0.000;0.000;2023-05-07T02:21:36;100556.69;;;23.88;37.53
78625;BME280;67944;0.000;0.000;2023-05-07T02:24:02;100553.19;;;23.87;37.34
78625;BME280;67944;0.000;0.000;2023-05-07T02:26:28;100553.41;;;23.86;37.70
78625;BME280;67944;0.000;0.000;2023-05-07T02:28:53;100555.44;;;23.84;37.71
78625;BME280;67944;0.000;0.000;2023-05-07T02:31:19;100560.94;;;23.82;37.56
78625;BME280;67944;0.000;0.000;2023-05-07T02:33:44;100562.19;;;23.80;37.77
78625;BME280;67944;0.000;0.000;2023-05-07T02:36:11;100565.69;;;23.80;37.66
78625;BME280;67944;0.000;0.000;2023-05-07T02:38:37;100564.22;;;23.78;37.70
78625;BME280;67944;0.000;0.000;2023-05-07T02:41:03;100568.72;;;23.77;37.49
78625;BME280;67944;0.000;0.000;2023-05-07T02:43:28;100574.25;;;23.76;37.35
78625;BME280;67944;0.000;0.000;2023-05-07T02:46:05;100571.78;;;23.74;37.73
78625;BME280;67944;0.000;0.000;2023-05-07T02:48:32;100567.47;;;23.73;37.66
78625;BME280;67944;0.000;0.000;2023-05-07T02:50:59;100574.63;;;23.73;37.19
78625;BME280;67944;0.000;0.000;2023-05-07T02:53:25;100571.34;;;23.71;37.60
78625;BME280;67944;0.000;0.000;2023-05-07T02:55:52;100567.06;;;23.70;37.59
78625;BME280;67944;0.000;0.000;2023-05-07T02:58:18;100569.09;;;23.68;37.79
78625;BME280;67944;0.000;0.000;2023-05-07T03:00:43;100569.09;;;23.68;37.90
78625;BME280;67944;0.000;0.000;2023-05-07T03:03:09;100563.97;;;23.66;37.87
78625;BME280;67944;0.000;0.000;2023-05-07T03:05:34;100569.47;;;23.65;37.92
78625;BME280;67944;0.000;0.000;2023-05-07T03:08:00;100571.50;;;23.63;37.88
78625;BME280;67944;0.000;0.000;2023-05-07T03:10:25;100575.00;;;23.63;38.07
78625;BME280;67944;0.000;0.000;2023-05-07T03:12:51;100576.00;;;23.62;37.69
78625;BME280;67944;0.000;0.000;2023-05-07T03:15:16;100564.53;;;23.62;37.97
78625;BME280;67944;0.000;0.000;2023-05-07T03:17:42;100562.91;;;23.61;37.90
78625;BME280;67944;0.000;0.000;2023-05-07T03:20:07;100554.34;;;23.58;38.02
78625;BME280;67944;0.000;0.000;2023-05-07T03:22:34;100554.34;;;23.58;37.74
78625;BME280;67944;0.000;0.000;2023-05-07T03:25:00;100555.34;;;23.57;37.85
78625;BME280;67944;0.000;0.000;2023-05-07T03:27:25;100551.06;;;23.56;37.98
78625;BME280;67944;0.000;0.000;2023-05-07T03:29:51;100542.44;;;23.54;37.80
78625;BME280;67944;0.000;0.000;2023-05-07T03:32:16;100546.13;;;23.53;38.17
78625;BME280;67944;0.000;0.000;2023-05-07T03:34:41;100546.13;;;23.53;38.10
78625;BME280;67944;0.000;0.000;2023-05-07T03:37:07;100540.16;;;23.51;38.27
78625;BME280;67944;0.000;0.000;2023-05-07T03:39:32;100543.66;;;23.52;38.08
78625;BME280;67944;0.000;0.000;2023-05-07T03:41:58;100536.66;;;23.51;37.95
78625;BME280;67944;0.000;0.000;2023-05-07T03:44:23;100536.88;;;23.49;37.74
78625;BME280;67944;0.000;0.000;2023-05-07T03:46:49;100536.88;;;23.49;38.26
78625;BME280;67944;0.000;0.000;2023-05-07T03:49:14;100537.06;;;23.48;37.92
78625;BME280;67944;0.000;0.000;2023-05-07T03:51:40;100537.06;;;23.48;38.07
78625;BME280;67944;0.000;0.000;2023-05-07T03:54:05;100529.28;;;23.46;38.22
78625;BME280;67944;0.000;0.000;2023-05-07T03:56:30;100544.22;;;23.47;37.94
78625;BME280;67944;0.000;0.000;2023-05-07T03:58:56;100543.78;;;23.44;37.99
78625;BME280;67944;0.000;0.000;2023-05-07T04:01:21;100548.28;;;23.43;38.22
78625;BME280;67944;0.000;0.000;2023-05-07T04:03:47;100549.91;;;23.44;38.10
78625;BME280;67944;0.000;0.000;2023-05-07T04:06:12;100557.28;;;23.42;37.84
78625;BME280;67944;0.000;0.000;2023-05-07T04:08:38;100558.28;;;23.41;38.01
78625;BME280;67944;0.000;0.000;2023-05-07T04:11:03;100562.78;;;23.41;38.15
78625;BME280;67944;0.000;0.000;2023-05-07T04:13:29;100559.31;;;23.40;38.06
78625;BME280;67944;0.000;0.000;2023-05-07T04:15:55;100561.13;;;23.40;38.17
78625;BME280;67944;0.000;0.000;2023-05-07T04:18:21;100566.69;;;23.38;38.01
78625;BME280;67944;0.000;0.000;2023-05-07T04:20:49;100559.72;;;23.37;38.26
78625;BME280;67944;0.000;0.000;2023-05-07T04:23:15;100563.19;;;23.38;38.03
78625;BME280;67944;0.000;0.000;2023-05-07T04:25:40;100561.56;;;23.37;38.34
78625;BME280;67944;0.000;0.000;2023-05-07T04:28:06;100564.41;;;23.35;38.47
78625;BME280;67944;0.000;0.000;2023-05-07T04:30:32;100561.94;;;23.34;38.15
78625;BME280;67944;0.000;0.000;2023-05-07T04:32:57;100561.94;;;23.34;38.35
78625;BME280;67944;0.000;0.000;2023-05-07T04:35:23;100567.25;;;23.34;38.19
78625;BME280;67944;0.000;0.000;2023-05-07T04:37:48;100562.97;;;23.33;38.11
78625;BME280;67944;0.000;0.000;2023-05-07T04:40:13;100569.28;;;23.32;38.07
78625;BME280;67944;0.000;0.000;2023-05-07T04:42:39;100568.47;;;23.31;38.32
78625;BME280;67944;0.000;0.000;2023-05-07T04:45:05;100571.31;;;23.30;38.24
78625;BME280;67944;0.000;0.000;2023-05-07T04:47:30;100574.78;;;23.30;38.30
78625;BME280;67944;0.000;0.000;2023-05-07T04:49:57;100576.63;;;23.30;38.38
78625;BME280;67944;0.000;0.000;2023-05-07T04:52:23;100567.84;;;23.29;38.05
78625;BME280;67944;0.000;0.000;2023-05-07T04:54:48;100579.47;;;23.28;38.38
78625;BME280;67944;0.000;0.000;2023-05-07T04:57:13;100570.69;;;23.28;38.57
78625;BME280;67944;0.000;0.000;2023-05-07T04:59:39;100568.03;;;23.28;38.48
78625;BME280;67944;0.000;0.000;2023-05-07T05:02:05;100577.84;;;23.27;38.32
78625;BME280;67944;0.000;0.000;2023-05-07T05:04:30;100577.03;;;23.27;38.09
78625;BME280;67944;0.000;0.000;2023-05-07T05:06:56;100577.84;;;23.27;38.60
78625;BME280;67944;0.000;0.000;2023-05-07T05:09:22;100579.88;;;23.25;38.32
78625;BME280;67944;0.000;0.000;2023-05-07T05:11:47;100583.16;;;23.27;38.48
78625;BME280;67944;0.000;0.000;2023-05-07T05:14:13;100588.47;;;23.27;38.21
78625;BME280;67944;0.000;0.000;2023-05-07T05:16:38;100584.16;;;23.26;38.49
78625;BME280;67944;0.000;0.000;2023-05-07T05:19:04;100588.66;;;23.25;38.26
78625;BME280;67944;0.000;0.000;2023-05-07T05:21:31;100589.66;;;23.24;38.45
78625;BME280;67944;0.000;0.000;2023-05-07T05:23:56;100586.81;;;23.26;38.55
78625;BME280;67944;0.000;0.000;2023-05-07T05:26:22;100593.16;;;23.25;38.54
78625;BME280;67944;0.000;0.000;2023-05-07T05:28:47;100589.47;;;23.26;38.41
78625;BME280;67944;0.000;0.000;2023-05-07T05:31:12;100590.50;;;23.25;37.97
78625;BME280;67944;0.000;0.000;2023-05-07T05:33:39;100587.66;;;23.27;38.22
78625;BME280;67944;0.000;0.000;2023-05-07T05:36:06;100592.13;;;23.26;38.60
78625;BME280;67944;0.000;0.000;2023-05-07T05:38:31;100585.19;;;23.25;38.50
78625;BME280;67944;0.000;0.000;2023-05-07T05:40:57;100592.13;;;23.26;38.36
78625;BME280;67944;0.000;0.000;2023-05-07T05:43:22;100601.13;;;23.25;38.26
78625;BME280;67944;0.000;0.000;2023-05-07T05:45:48;100597.44;;;23.26;38.59
78625;BME280;67944;0.000;0.000;2023-05-07T05:48:13;100601.13;;;23.25;38.43
78625;BME280;67944;0.000;0.000;2023-05-07T05:50:39;100595.81;;;23.25;38.46
78625;BME280;67944;0.000;0.000;2023-05-07T05:53:04;100602.13;;;23.24;38.47
78625;BME280;67944;0.000;0.000;2023-05-07T05:55:30;100605.63;;;23.24;38.38
78625;BME280;67944;0.000;0.000;2023-05-07T05:57:58;100607.44;;;23.24;38.51
78625;BME280;67944;0.000;0.000;2023-05-07T06:00:23;100610.94;;;23.24;38.74
78625;BME280;67944;0.000;0.000;2023-05-07T06:02:49;100610.94;;;23.24;38.63
78625;BME280;67944;0.000;0.000;2023-05-07T06:05:14;100618.91;;;23.24;38.42
78625;BME280;67944;0.000;0.000;2023-05-07T06:07:40;100612.56;;;23.25;38.54
78625;BME280;67944;0.000;0.000;2023-05-07T06:10:06;100611.75;;;23.25;38.65
78625;BME280;67944;0.000;0.000;2023-05-07T06:12:31;100617.06;;;23.25;38.74
78625;BME280;67944;0.000;0.000;2023-05-07T06:14:57;100609.09;;;23.25;38.60
78625;BME280;67944;0.000;0.000;2023-05-07T06:17:22;100610.75;;;23.26;38.77
78625;BME280;67944;0.000;0.000;2023-05-07T06:19:47;100612.38;;;23.27;38.76
78625;BME280;67944;0.000;0.000;2023-05-07T06:22:13;100612.38;;;23.27;38.57
78625;BME280;67944;0.000;0.000;2023-05-07T06:24:38;100614.22;;;23.27;38.57
78625;BME280;67944;0.000;0.000;2023-05-07T06:27:04;100617.50;;;23.29;38.59
78625;BME280;67944;0.000;0.000;2023-05-07T06:29:29;100616.69;;;23.28;38.75
78625;BME280;67944;0.000;0.000;2023-05-07T06:32:09;100616.69;;;23.28;38.63
78625;BME280;67944;0.000;0.000;2023-05-07T06:34:35;100620.97;;;23.29;38.21
78625;BME280;67944;0.000;0.000;2023-05-07T06:37:01;100624.47;;;23.30;38.48
78625;BME280;67944;0.000;0.000;2023-05-07T06:39:26;100624.47;;;23.30;38.51
78625;BME280;67944;0.000;0.000;2023-05-07T06:41:52;100635.91;;;23.30;38.57
78625;BME280;67944;0.000;0.000;2023-05-07T06:44:17;100629.59;;;23.31;38.82
78625;BME280;67944;0.000;0.000;2023-05-07T06:46:43;100632.25;;;23.31;38.46
78625;BME280;67944;0.000;0.000;2023-05-07T06:49:08;100628.56;;;23.32;38.77
78625;BME280;67944;0.000;0.000;2023-05-07T06:51:33;100628.56;;;23.32;38.50
78625;BME280;67944;0.000;0.000;2023-05-07T06:53:59;100625.91;;;23.32;38.47
78625;BME280;67944;0.000;0.000;2023-05-07T06:56:24;100624.09;;;23.33;38.50
78625;BME280;67944;0.000;0.000;2023-05-07T06:58:50;100619.59;;;23.33;38.74
78625;BME280;67944;0.000;0.000;2023-05-07T07:01:15;100617.75;;;23.34;38.47
78625;BME280;67944;0.000;0.000;2023-05-07T07:03:41;100615.91;;;23.34;38.89
78625;BME280;67944;0.000;0.000;2023-05-07T07:06:06;100621.03;;;23.36;38.75
78625;BME280;67944;0.000;0.000;2023-05-07T07:08:32;100625.34;;;23.37;38.57
78625;BME280;67944;0.000;0.000;2023-05-07T07:10:57;100620.03;;;23.37;38.60
78625;BME280;67944;0.000;0.000;2023-05-07T07:13:23;100618.19;;;23.37;38.67
78625;BME280;67944;0.000;0.000;2023-05-07T07:15:48;100622.50;;;23.38;38.35
78625;BME280;67944;0.000;0.000;2023-05-07T07:18:14;100625.94;;;23.39;38.82
78625;BME280;67944;0.000;0.000;2023-05-07T07:20:39;100620.44;;;23.40;38.75
78625;BME280;67944;0.000;0.000;2023-05-07T07:23:05;100622.06;;;23.41;38.48
78625;BME280;67944;0.000;0.000;2023-05-07T07:25:30;100618.59;;;23.41;38.65
78625;BME280;67944;0.000;0.000;2023-05-07T07:27:56;100619.22;;;23.43;38.69
78625;BME280;67944;0.000;0.000;2023-05-07T07:30:21;100624.34;;;23.44;38.27
78625;BME280;67944;0.000;0.000;2023-05-07T07:32:47;100630.50;;;23.45;38.22
78625;BME280;67944;0.000;0.000;2023-05-07T07:35:12;100640.09;;;23.46;38.63
78625;BME280;67944;0.000;0.000;2023-05-07T07:37:37;100638.06;;;23.48;38.79
78625;BME280;67944;0.000;0.000;2023-05-07T07:40:03;100634.59;;;23.47;38.53
78625;BME280;67944;0.000;0.000;2023-05-07T07:42:29;100632.56;;;23.49;38.64
78625;BME280;67944;0.000;0.000;2023-05-07T07:44:54;100636.03;;;23.50;38.46
78625;BME280;67944;0.000;0.000;2023-05-07T07:47:20;100639.38;;;23.52;38.72
78625;BME280;67944;0.000;0.000;2023-05-07T07:49:45;100639.38;;;23.52;38.68
78625;BME280;67944;0.000;0.000;2023-05-07T07:52:11;100645.31;;;23.54;38.68
78625;BME280;67944;0.000;0.000;2023-05-07T07:54:36;100651.25;;;23.56;38.63
78625;BME280;67944;0.000;0.000;2023-05-07T07:57:02;100641.44;;;23.56;38.32
78625;BME280;67944;0.000;0.000;2023-05-07T07:59:27;100644.72;;;23.58;38.68
78625;BME280;67944;0.000;0.000;2023-05-07T08:01:53;100648.00;;;23.61;38.16
78625;BME280;67944;0.000;0.000;2023-05-07T08:04:21;100644.31;;;23.62;38.42
78625;BME280;67944;0.000;0.000;2023-05-07T08:06:46;100645.97;;;23.63;38.53
78625;BME280;67944;0.000;0.000;2023-05-07T08:09:12;100640.44;;;23.64;38.31
78625;BME280;67944;0.000;0.000;2023-05-07T08:11:38;100645.56;;;23.66;38.44
78625;BME280;67944;0.000;0.000;2023-05-07T08:14:04;100644.56;;;23.67;38.17
78625;BME280;67944;0.000;0.000;2023-05-07T08:16:29;100656.66;;;23.69;38.51
78625;BME280;67944;0.000;0.000;2023-05-07T08:18:55;100655.63;;;23.70;38.11
78625;BME280;67944;0.000;0.000;2023-05-07T08:21:21;100648.47;;;23.71;38.58
78625;BME280;67944;0.000;0.000;2023-05-07T08:23:47;100648.47;;;23.71;38.30
78625;BME280;67944;0.000;0.000;2023-05-07T08:26:12;100652.59;;;23.73;38.37
78625;BME280;67944;0.000;0.000;2023-05-07T08:28:38;100651.75;;;23.73;38.00
78625;BME280;67944;0.000;0.000;2023-05-07T08:31:04;100645.44;;;23.74;38.51
78625;BME280;67944;0.000;0.000;2023-05-07T08:33:30;100656.69;;;23.76;38.57
78625;BME280;67944;0.000;0.000;2023-05-07T08:35:56;100655.88;;;23.75;38.09
78625;BME280;67944;0.000;0.000;2023-05-07T08:38:21;100657.31;;;23.78;38.13
78625;BME280;67944;0.000;0.000;2023-05-07T08:40:47;100652.81;;;23.78;37.99
78625;BME280;67944;0.000;0.000;2023-05-07T08:43:13;100647.31;;;23.80;38.48
78625;BME280;67944;0.000;0.000;2023-05-07T08:45:40;100651.59;;;23.81;38.37
78625;BME280;67944;0.000;0.000;2023-05-07T08:48:15;100649.78;;;23.81;38.51
78625;BME280;67944;0.000;0.000;2023-05-07T08:50:41;100654.28;;;23.81;37.87
78625;BME280;67944;0.000;0.000;2023-05-07T08:53:07;100655.69;;;23.83;38.28
78625;BME280;67944;0.000;0.000;2023-05-07T08:55:33;100653.84;;;23.84;38.40
78625;BME280;67944;0.000;0.000;2023-05-07T08:57:59;100654.47;;;23.86;38.07
78625;BME280;67944;0.000;0.000;2023-05-07T09:00:24;100656.94;;;23.87;38.21
78625;BME280;67944;0.000;0.000;2023-05-07T09:02:50;100661.25;;;23.88;38.47
78625;BME280;67944;0.000;0.000;2023-05-07T09:05:15;100660.03;;;23.91;38.41
78625;BME280;67944;0.000;0.000;2023-05-07T09:07:41;100661.69;;;23.92;37.90
78625;BME280;67944;0.000;0.000;2023-05-07T09:10:07;100659.66;;;23.94;37.88
78625;BME280;67944;0.000;0.000;2023-05-07T09:12:32;100663.13;;;23.95;38.01
78625;BME280;67944;0.000;0.000;2023-05-07T09:15:00;100665.59;;;23.96;37.92
78625;BME280;67944;0.000;0.000;2023-05-07T09:17:26;100666.22;;;23.98;37.87
78625;BME280;67944;0.000;0.000;2023-05-07T09:19:52;100666.66;;;24.02;37.71
78625;BME280;67944;0.000;0.000;2023-05-07T09:22:18;100660.31;;;24.03;37.68
78625;BME280;67944;0.000;0.000;2023-05-07T09:24:50;100665.41;;;24.04;37.52
78625;BME280;67944;0.000;0.000;2023-05-07T09:27:17;100664.19;;;24.07;37.68
78625;BME280;67944;0.000;0.000;2023-05-07T09:29:43;100662.16;;;24.09;37.64
78625;BME280;67944;0.000;0.000;2023-05-07T09:32:09;100655.63;;;24.11;38.18
78625;BME280;67944;0.000;0.000;2023-05-07T09:34:36;100659.91;;;24.12;38.19
78625;BME280;67944;0.000;0.000;2023-05-07T09:37:03;100661.38;;;24.15;37.71
78625;BME280;67944;0.000;0.000;2023-05-07T09:39:43;100659.34;;;24.17;37.41
78625;BME280;67944;0.000;0.000;2023-05-07T09:42:09;100667.13;;;24.18;37.82
78625;BME280;67944;0.000;0.000;2023-05-07T09:44:35;100667.75;;;24.20;37.90
78625;BME280;67944;0.000;0.000;2023-05-07T09:47:05;100657.72;;;24.22;38.12
78625;BME280;67944;0.000;0.000;2023-05-07T09:49:35;100654.03;;;24.23;37.40
78625;BME280;67944;0.000;0.000;2023-05-07T09:52:03;100650.16;;;24.26;37.20
78625;BME280;67944;0.000;0.000;2023-05-07T09:54:32;100648.94;;;24.29;37.84
78625;BME280;67944;0.000;0.000;2023-05-07T09:56:59;100637.28;;;24.30;37.77
78625;BME280;67944;0.000;0.000;2023-05-07T09:59:27;100644.88;;;24.33;37.71
78625;BME280;67944;0.000;0.000;2023-05-07T10:01:57;100633.84;;;24.36;37.69
78625;BME280;67944;0.000;0.000;2023-05-07T10:04:25;100634.44;;;24.38;37.23
78625;BME280;67944;0.000;0.000;2023-05-07T10:06:51;100624.44;;;24.40;37.49
78625;BME280;67944;0.000;0.000;2023-05-07T10:09:18;100631.19;;;24.42;37.30
78625;BME280;67944;0.000;0.000;2023-05-07T10:11:44;100629.16;;;24.44;37.47
78625;BME280;67944;0.000;0.000;2023-05-07T10:14:10;100627.91;;;24.47;37.35
78625;BME280;67944;0.000;0.000;2023-05-07T10:16:37;100636.50;;;24.49;37.40
78625;BME280;67944;0.000;0.000;2023-05-07T10:19:03;100633.44;;;24.52;37.05
78625;BME280;67944;0.000;0.000;2023-05-07T10:21:31;100635.09;;;24.53;37.27
78625;BME280;67944;0.000;0.000;2023-05-07T10:24:03;100632.03;;;24.56;37.70
78625;BME280;67944;0.000;0.000;2023-05-07T10:26:33;100633.47;;;24.58;37.20
78625;BME280;67944;0.000;0.000;2023-05-07T10:29:17;100634.09;;;24.60;36.75
78625;BME280;67944;0.000;0.000;2023-05-07T10:32:10;100632.88;;;24.63;37.63
78625;BME280;67944;0.000;0.000;2023-05-07T10:34:43;100628.16;;;24.65;36.96
78625;BME280;67944;0.000;0.000;2023-05-07T10:37:12;100634.94;;;24.68;36.96
78625;BME280;67944;0.000;0.000;2023-05-07T10:39:38;100627.53;;;24.70;37.24
78625;BME280;67944;0.000;0.000;2023-05-07T10:42:10;100635.13;;;24.73;36.70
78625;BME280;67944;0.000;0.000;2023-05-07T10:44:36;100625.91;;;24.75;36.63
78625;BME280;67944;0.000;0.000;2023-05-07T10:47:16;100622.03;;;24.78;36.69
78625;BME280;67944;0.000;0.000;2023-05-07T10:52:18;100626.75;;;24.82;37.30
78625;BME280;67944;0.000;0.000;2023-05-07T10:54:45;100619.38;;;24.84;37.26
78625;BME280;67944;0.000;0.000;2023-05-07T10:57:35;100626.75;;;24.89;36.64
78625;BME280;67944;0.000;0.000;2023-05-07T11:05:27;100606.28;;;24.96;36.99
78625;BME280;67944;0.000;0.000;2023-05-07T11:07:56;100601.34;;;25.00;36.44
78625;BME280;67944;0.000;0.000;2023-05-07T11:10:22;100600.94;;;25.03;36.30
78625;BME280;67944;0.000;0.000;2023-05-07T11:12:51;100605.06;;;25.05;36.65
78625;BME280;67944;0.000;0.000;2023-05-07T11:15:40;100600.13;;;25.09;36.50
78625;BME280;67944;0.000;0.000;2023-05-07T11:18:08;100593.56;;;25.11;36.23
78625;BME280;67944;0.000;0.000;2023-05-07T11:26:07;100591.50;;;25.20;36.50
78625;BME280;67944;0.000;0.000;2023-05-07T11:28:38;100595.59;;;25.22;36.33
78625;BME280;67944;0.000;0.000;2023-05-07T11:31:05;100592.72;;;25.24;36.45
78625;BME280;67944;0.000;0.000;2023-05-07T11:33:31;100594.97;;;25.27;36.33
78625;BME280;67944;0.000;0.000;2023-05-07T11:35:57;100592.91;;;25.29;36.54
78625;BME280;67944;0.000;0.000;2023-05-07T11:38:24;100587.19;;;25.32;36.48
78625;BME280;67944;0.000;0.000;2023-05-07T11:40:59;100584.28;;;25.34;36.35
78625;BME280;67944;0.000;0.000;2023-05-07T11:43:26;100584.88;;;25.36;35.98
78625;BME280;67944;0.000;0.000;2023-05-07T11:45:52;100576.06;;;25.35;36.57
78625;BME280;67944;0.000;0.000;2023-05-07T11:48:18;100577.50;;;25.38;36.62
78625;BME280;67944;0.000;0.000;2023-05-07T11:51:09;100578.31;;;25.38;36.11
78625;BME280;67944;0.000;0.000;2023-05-07T11:53:42;100578.94;;;25.40;36.01
78625;BME280;67944;0.000;0.000;2023-05-07T11:56:13;100567.03;;;25.43;36.55
78625;BME280;67944;0.000;0.000;2023-05-07T11:58:40;100567.03;;;25.43;36.45
78625;BME280;67944;0.000;0.000;2023-05-07T12:01:10;100566.84;;;25.44;36.67
78625;BME280;67944;0.000;0.000;2023-05-07T12:03:37;100561.28;;;25.46;35.79
78625;BME280;67944;0.000;0.000;2023-05-07T12:06:04;100566.41;;;25.47;35.92
78625;BME280;67944;0.000;0.000;2023-05-07T12:08:30;100566.81;;;25.51;36.49
78625;BME280;67944;0.000;0.000;2023-05-07T12:10:56;100575.63;;;25.51;36.25
78625;BME280;67944;0.000;0.000;2023-05-07T12:13:24;100567.22;;;25.54;36.40
78625;BME280;67944;0.000;0.000;2023-05-07T12:15:54;100571.50;;;25.55;36.18
78625;BME280;67944;0.000;0.000;2023-05-07T12:18:21;100570.25;;;25.58;36.25
78625;BME280;67944;0.000;0.000;2023-05-07T12:20:48;100570.88;;;25.60;35.63
78625;BME280;67944;0.000;0.000;2023-05-07T12:23:14;100557.31;;;25.61;36.33
78625;BME280;67944;0.000;0.000;2023-05-07T12:25:42;100558.59;;;25.66;36.02
78625;BME280;67944;0.000;0.000;2023-05-07T12:28:17;100558.59;;;25.66;35.53
78625;BME280;67944;0.000;0.000;2023-05-07T12:30:47;100550.97;;;25.69;35.60
78625;BME280;67944;0.000;0.000;2023-05-07T12:33:17;100551.59;;;25.71;36.34
78625;BME280;67944;0.000;0.000;2023-05-07T12:35:43;100552.19;;;25.73;36.13
78625;BME280;67944;0.000;0.000;2023-05-07T12:38:12;100550.13;;;25.75;35.65
78625;BME280;67944;0.000;0.000;2023-05-07T12:40:41;100556.88;;;25.78;35.41
78625;BME280;67944;0.000;0.000;2023-05-07T12:43:07;100556.66;;;25.79;35.09
78625;BME280;67944;0.000;0.000;2023-05-07T12:45:38;100544.75;;;25.82;35.96
78625;BME280;67944;0.000;0.000;2023-05-07T12:48:04;100540.03;;;25.84;35.84
78625;BME280;67944;0.000;0.000;2023-05-07T12:50:33;100548.63;;;25.86;35.20
78625;BME280;67944;0.000;0.000;2023-05-07T12:52:59;100547.59;;;25.87;35.18
78625;BME280;67944;0.000;0.000;2023-05-07T12:55:24;100547.41;;;25.88;35.57
78625;BME280;67944;0.000;0.000;2023-05-07T12:57:51;100540.00;;;25.90;35.24
78625;BME280;67944;0.000;0.000;2023-05-07T13:00:32;100538.97;;;25.91;35.94
78625;BME280;67944;0.000;0.000;2023-05-07T13:02:58;100528.09;;;25.93;35.50
78625;BME280;67944;0.000;0.000;2023-05-07T13:05:23;100534.03;;;25.95;34.99
78625;BME280;67944;0.000;0.000;2023-05-07T13:07:53;100529.72;;;25.94;35.73
78625;BME280;67944;0.000;0.000;2023-05-07T13:10:19;100531.97;;;25.97;35.90
78625;BME280;67944;0.000;0.000;2023-05-07T13:12:45;100529.06;;;25.99;35.60